createdAt,value
2023-02-05T00:00:01.195Z,-0.03
2023-02-05T00:02:30.283Z,0.04
2023-02-05T00:04:58.864Z,0.08
2023-02-05T00:07:27.674Z,0.08
2023-02-05T00:09:56.166Z,-0.01
2023-02-05T00:12:24.813Z,-0.05
2023-02-05T00:14:53.496Z,-0.11
2023-02-05T00:17:22.227Z,-0.26
2023-02-05T00:19:50.766Z,-0.28
2023-02-05T00:22:19.076Z,-0.31
2023-02-05T00:24:47.834Z,-0.32
2023-02-05T00:27:17.141Z,-0.32
2023-02-05T00:29:45.597Z,-0.31
2023-02-05T00:32:13.888Z,-0.33
2023-02-05T00:34:42.388Z,-0.43
2023-02-05T00:37:10.885Z,-0.48
2023-02-05T00:39:39.878Z,-0.48
2023-02-05T00:42:08.576Z,-0.57
2023-02-05T00:44:37.441Z,-0.61
2023-02-05T00:47:06.115Z,-0.58
2023-02-05T00:49:35.150Z,-0.56
2023-02-05T00:52:04.496Z,-0.54
2023-02-05T00:54:32.974Z,-0.50
2023-02-05T00:57:01.673Z,-0.57
2023-02-05T00:59:30.365Z,-0.68
2023-02-05T01:01:59.966Z,-0.70
2023-02-05T01:04:28.575Z,-0.74
2023-02-05T01:06:57.143Z,-0.77
2023-02-05T01:09:25.628Z,-0.78
2023-02-05T01:11:54.848Z,-0.80
2023-02-05T01:14:23.267Z,-0.83
2023-02-05T01:16:51.860Z,-0.88
2023-02-05T01:19:20.306Z,-0.91
2023-02-05T01:21:48.663Z,-0.97
2023-02-05T01:24:17.018Z,-0.98
2023-02-05T01:26:47.927Z,-0.99
2023-02-05T01:29:16.381Z,-1.05
2023-02-05T01:31:45.193Z,-1.05
2023-02-05T01:34:13.779Z,-1.07
2023-02-05T01:36:42.684Z,-1.03
2023-02-05T01:39:11.245Z,-0.96
2023-02-05T01:41:42.056Z,-0.96
2023-02-05T01:44:13.647Z,-1.02
2023-02-05T01:46:43.126Z,-1.02
2023-02-05T01:49:18.940Z,-1.07
2023-02-05T01:51:48.810Z,-1.10
2023-02-05T01:54:21.546Z,-1.12
2023-02-05T01:56:54.800Z,-1.12
2023-02-05T01:59:27.669Z,-1.10
2023-02-05T02:01:56.522Z,-1.09
2023-02-05T02:04:36.882Z,-1.13
2023-02-05T02:07:08.252Z,-1.11
2023-02-05T02:09:39.707Z,-1.09
2023-02-05T02:12:10.709Z,-1.10
2023-02-05T02:14:41.222Z,-1.13
2023-02-05T02:17:11.042Z,-1.06
2023-02-05T02:19:47.636Z,-1.07
2023-02-05T02:22:40.344Z,-1.10
2023-02-05T02:25:31.104Z,-1.14
2023-02-05T02:28:06.314Z,-1.13
2023-02-05T02:30:41.204Z,-1.08
2023-02-05T02:33:17.669Z,-1.11
2023-02-05T02:35:59.087Z,-1.12
2023-02-05T02:38:33.033Z,-1.15
2023-02-05T02:41:08.286Z,-1.15
2023-02-05T02:43:45.109Z,-1.22
2023-02-05T02:46:19.126Z,-1.20
2023-02-05T02:48:50.252Z,-1.21
2023-02-05T02:51:21.404Z,-1.22
2023-02-05T02:53:54.785Z,-1.25
2023-02-05T02:56:25.822Z,-1.32
2023-02-05T02:58:57.995Z,-1.35
2023-02-05T03:01:31.796Z,-1.31
2023-02-05T03:04:07.162Z,-1.25
2023-02-05T03:06:38.058Z,-1.13
2023-02-05T03:09:13.024Z,-1.29
2023-02-05T03:11:42.103Z,-1.44
2023-02-05T03:14:11.328Z,-1.49
2023-02-05T03:16:40.396Z,-1.50
2023-02-05T03:19:10.032Z,-1.47
2023-02-05T03:21:42.812Z,-1.41
2023-02-05T03:24:12.574Z,-1.47
2023-02-05T03:26:41.626Z,-1.51
2023-02-05T03:29:35.075Z,-1.57
2023-02-05T03:32:21.522Z,-1.58
2023-02-05T03:35:04.567Z,-1.59
2023-02-05T03:37:45.089Z,-1.63
2023-02-05T03:40:24.228Z,-1.58
2023-02-05T03:43:05.578Z,-1.54
2023-02-05T03:45:45.338Z,-1.59
2023-02-05T03:48:37.179Z,-1.60
2023-02-05T03:51:18.723Z,-1.60
2023-02-05T03:53:56.878Z,-1.63
2023-02-05T03:56:31.062Z,-1.74
2023-02-05T03:59:01.027Z,-1.80
2023-02-05T04:01:30.368Z,-1.74
2023-02-05T04:03:58.841Z,-1.53
2023-02-05T04:06:27.374Z,-1.49
2023-02-05T04:08:55.793Z,-1.48
2023-02-05T04:11:24.732Z,-1.62
2023-02-05T04:13:53.158Z,-1.50
2023-02-05T04:16:21.457Z,-1.45
2023-02-05T04:18:50.296Z,-1.46
2023-02-05T04:21:18.678Z,-1.53
2023-02-05T04:23:47.123Z,-1.59
2023-02-05T04:26:15.999Z,-1.79
2023-02-05T04:28:49.803Z,-1.94
2023-02-05T04:31:18.475Z,-1.99
2023-02-05T04:33:46.849Z,-2.01
2023-02-05T04:36:16.183Z,-2.03
2023-02-05T04:38:44.529Z,-2.11
2023-02-05T04:41:12.796Z,-2.11
2023-02-05T04:43:41.160Z,-2.07
2023-02-05T04:46:10.953Z,-2.08
2023-02-05T04:48:40.255Z,-2.08
2023-02-05T04:51:10.687Z,-2.02
2023-02-05T04:53:39.819Z,-2.01
2023-02-05T04:56:11.523Z,-1.94
2023-02-05T04:58:40.256Z,-1.99
2023-02-05T05:01:13.469Z,-1.99
2023-02-05T05:03:42.345Z,-2.13
2023-02-05T05:06:11.300Z,-2.23
2023-02-05T05:08:40.046Z,-2.23
2023-02-05T05:11:10.778Z,-2.23
2023-02-05T05:13:39.534Z,-2.21
2023-02-05T05:16:09.979Z,-2.17
2023-02-05T05:18:42.020Z,-2.10
2023-02-05T05:21:11.218Z,-1.99
2023-02-05T05:23:39.773Z,-1.94
2023-02-05T05:26:11.116Z,-1.99
2023-02-05T05:28:40.052Z,-1.96
2023-02-05T05:31:10.368Z,-1.90
2023-02-05T05:33:38.773Z,-1.87
2023-02-05T05:36:08.404Z,-1.83
2023-02-05T05:38:36.872Z,-1.88
2023-02-05T05:41:24.110Z,-1.97
2023-02-05T05:43:54.244Z,-1.93
2023-02-05T05:46:25.396Z,-1.79
2023-02-05T05:48:55.326Z,-1.82
2023-02-05T05:51:25.261Z,-2.00
2023-02-05T05:53:54.337Z,-2.09
2023-02-05T05:56:23.331Z,-2.13
2023-02-05T05:58:51.734Z,-2.14
2023-02-05T06:01:22.200Z,-2.02
2023-02-05T06:03:50.777Z,-1.89
2023-02-05T06:06:19.115Z,-1.86
2023-02-05T06:08:47.406Z,-1.98
2023-02-05T06:11:15.941Z,-1.99
2023-02-05T06:13:44.504Z,-2.07
2023-02-05T06:16:12.993Z,-2.08
2023-02-05T06:18:42.136Z,-2.09
2023-02-05T06:21:10.588Z,-2.16
2023-02-05T06:23:38.958Z,-2.19
2023-02-05T06:26:07.326Z,-2.16
2023-02-05T06:28:35.655Z,-2.07
2023-02-05T06:31:04.787Z,-1.97
2023-02-05T06:33:33.227Z,-1.99
2023-02-05T06:36:01.605Z,-2.07
2023-02-05T06:38:30.077Z,-2.10
2023-02-05T06:40:58.501Z,-2.15
2023-02-05T06:43:26.956Z,-2.17
2023-02-05T06:45:55.482Z,-2.15
2023-02-05T06:48:24.578Z,-2.11
2023-02-05T06:50:53.194Z,-2.10
2023-02-05T06:53:21.610Z,-1.95
2023-02-05T06:55:50.085Z,-2.06
2023-02-05T06:58:18.772Z,-2.16
2023-02-05T07:00:47.261Z,-2.05
2023-02-05T07:03:15.833Z,-2.08
2023-02-05T07:05:44.924Z,-2.07
2023-02-05T07:08:13.431Z,-2.11
2023-02-05T07:10:42.253Z,-2.14
2023-02-05T07:13:11.007Z,-2.20
2023-02-05T07:15:39.587Z,-2.15
2023-02-05T07:18:08.088Z,-2.05
2023-02-05T07:20:37.184Z,-1.99
2023-02-05T07:23:05.926Z,-1.96
2023-02-05T07:25:37.315Z,-1.91
2023-02-05T07:28:08.010Z,-1.89
2023-02-05T07:30:37.632Z,-1.79
2023-02-05T07:33:06.242Z,-1.72
2023-02-05T07:35:38.704Z,-1.67
2023-02-05T07:38:07.313Z,-1.48
2023-02-05T07:40:37.697Z,-1.49
2023-02-05T07:43:06.140Z,-1.44
2023-02-05T07:45:35.033Z,-1.49
2023-02-05T07:48:04.217Z,-1.32
2023-02-05T07:50:32.895Z,-1.26
2023-02-05T07:53:01.596Z,-1.18
2023-02-05T07:55:30.344Z,-1.08
2023-02-05T07:57:58.986Z,-0.94
2023-02-05T08:00:27.705Z,-0.81
2023-02-05T08:02:56.342Z,-0.71
2023-02-05T08:05:25.092Z,-0.86
2023-02-05T08:07:55.020Z,-0.94
2023-02-05T08:10:24.435Z,-0.96
2023-02-05T08:12:53.046Z,-0.86
2023-02-05T08:15:21.913Z,-0.91
2023-02-05T08:17:50.765Z,-0.88
2023-02-05T08:20:19.973Z,-0.82
2023-02-05T08:22:48.923Z,-0.82
2023-02-05T08:25:17.936Z,-0.83
2023-02-05T08:27:48.475Z,-0.79
2023-02-05T08:30:20.902Z,-0.78
2023-02-05T08:32:48.827Z,-0.69
2023-02-05T08:35:18.393Z,-0.68
2023-02-05T08:37:47.903Z,-0.65
2023-02-05T08:40:16.789Z,-0.55
2023-02-05T08:42:46.088Z,-0.47
2023-02-05T08:45:15.767Z,-0.35
2023-02-05T08:47:44.469Z,-0.37
2023-02-05T08:50:13.317Z,-0.39
2023-02-05T08:52:41.932Z,-0.39
2023-02-05T08:55:11.227Z,-0.33
2023-02-05T08:57:40.189Z,-0.28
2023-02-05T09:00:12.217Z,-0.19
2023-02-05T09:02:42.975Z,-0.13
2023-02-05T09:05:12.223Z,-0.02
2023-02-05T09:07:41.675Z,0.01
2023-02-05T09:10:12.632Z,0.02
2023-02-05T09:12:41.125Z,0.03
2023-02-05T09:15:10.991Z,0.04
2023-02-05T09:17:39.555Z,0.06
2023-02-05T09:20:10.424Z,0.08
2023-02-05T09:22:39.211Z,0.06
2023-02-05T09:25:09.694Z,0.00
2023-02-05T09:27:38.474Z,0.08
2023-02-05T09:30:08.947Z,0.09
2023-02-05T09:32:37.529Z,0.16
2023-02-05T09:35:06.893Z,0.36
2023-02-05T09:37:35.461Z,0.51
2023-02-05T09:40:21.695Z,0.66
2023-02-05T09:43:00.697Z,0.85
2023-02-05T09:45:52.136Z,0.96
2023-02-05T09:48:49.092Z,0.94
2023-02-05T09:51:20.474Z,0.99
2023-02-05T09:53:54.352Z,1.00
2023-02-05T09:56:24.049Z,1.06
2023-02-05T09:58:54.316Z,1.09
2023-02-05T10:01:41.174Z,1.15
2023-02-05T10:04:10.815Z,1.24
2023-02-05T10:07:16.827Z,1.29
2023-02-05T10:10:07.026Z,1.34
2023-02-05T10:12:48.011Z,1.37
2023-02-05T10:15:37.872Z,1.43
2023-02-05T10:18:20.938Z,1.55
2023-02-05T10:20:58.184Z,1.68
2023-02-05T10:23:43.148Z,1.71
2023-02-05T10:26:12.721Z,1.75
2023-02-05T10:29:05.571Z,1.77
2023-02-05T10:31:41.965Z,1.87
2023-02-05T10:34:27.021Z,1.96
2023-02-05T10:36:55.519Z,2.05
2023-02-05T10:39:29.680Z,2.14
2023-02-05T10:42:04.948Z,2.21
2023-02-05T10:44:38.504Z,2.20
2023-02-05T10:47:12.969Z,2.25
2023-02-05T10:49:48.009Z,2.40
2023-02-05T10:52:17.209Z,2.36
2023-02-05T10:54:46.356Z,2.46
2023-02-05T10:57:17.724Z,2.31
2023-02-05T10:59:53.890Z,2.31
2023-02-05T11:02:32.800Z,2.33
2023-02-05T11:05:13.786Z,2.34
2023-02-05T11:07:45.174Z,2.37
2023-02-05T11:10:19.306Z,2.41
2023-02-05T11:12:50.090Z,2.51
2023-02-05T11:15:25.837Z,2.62
2023-02-05T11:17:59.417Z,2.74
2023-02-05T11:20:33.442Z,2.83
2023-02-05T11:23:23.477Z,2.89
2023-02-05T11:25:54.216Z,2.91
2023-02-05T11:28:27.248Z,3.06
2023-02-05T11:30:56.973Z,2.89
2023-02-05T11:33:29.961Z,2.80
2023-02-05T11:36:02.043Z,2.85
2023-02-05T11:38:43.900Z,2.91
2023-02-05T11:41:15.449Z,3.07
2023-02-05T11:43:50.154Z,3.12
2023-02-05T11:46:22.946Z,3.06
2023-02-05T11:48:58.224Z,3.11
2023-02-05T11:51:41.558Z,3.14
2023-02-05T11:54:18.747Z,3.13
2023-02-05T11:57:01.628Z,3.13
2023-02-05T11:59:30.399Z,3.07
2023-02-05T12:02:25.356Z,3.06
2023-02-05T12:05:00.689Z,3.01
2023-02-05T12:07:34.068Z,2.94
2023-02-05T12:10:14.224Z,2.92
2023-02-05T12:12:53.968Z,3.02
2023-02-05T12:15:27.197Z,3.14
2023-02-05T12:18:07.265Z,3.18
2023-02-05T12:20:39.795Z,3.25
2023-02-05T12:23:27.328Z,3.31
2023-02-05T12:26:14.180Z,3.35
2023-02-05T12:28:53.993Z,3.23
2023-02-05T12:31:30.100Z,3.10
2023-02-05T12:34:23.750Z,2.99
2023-02-05T12:37:15.126Z,3.01
2023-02-05T12:39:49.943Z,3.12
2023-02-05T12:42:31.896Z,3.17
2023-02-05T12:45:35.439Z,3.21
2023-02-05T12:48:16.442Z,3.20
2023-02-05T12:51:01.512Z,3.33
2023-02-05T12:53:44.247Z,3.28
2023-02-05T12:56:21.117Z,3.28
2023-02-05T12:58:54.275Z,3.30
2023-02-05T13:01:37.529Z,3.23
2023-02-05T13:04:13.275Z,3.18
2023-02-05T13:06:48.391Z,3.19
2023-02-05T13:09:22.585Z,3.18
2023-02-05T13:11:56.107Z,2.83
2023-02-05T13:14:30.082Z,2.89
2023-02-05T13:17:04.522Z,3.07
2023-02-05T13:19:40.150Z,3.13
2023-02-05T13:22:35.559Z,3.30
2023-02-05T13:25:38.593Z,3.36
2023-02-05T13:28:42.360Z,3.44
2023-02-05T13:31:17.024Z,3.58
2023-02-05T13:33:46.003Z,3.61
2023-02-05T13:36:32.837Z,3.68
2023-02-05T13:39:17.820Z,3.76
2023-02-05T13:42:03.518Z,3.87
2023-02-05T13:45:12.344Z,3.97
2023-02-05T13:47:57.088Z,3.98
2023-02-05T13:51:09.601Z,4.06
2023-02-05T13:53:47.071Z,4.11
2023-02-05T13:56:36.553Z,4.16
2023-02-05T13:59:15.854Z,3.82
2023-02-05T14:01:56.251Z,3.82
2023-02-05T14:04:33.566Z,3.87
2023-02-05T14:07:08.873Z,3.49
2023-02-05T14:09:46.060Z,3.46
2023-02-05T14:12:26.891Z,3.46
2023-02-05T14:15:36.311Z,3.42
2023-02-05T14:18:09.018Z,3.10
2023-02-05T14:20:44.805Z,3.06
2023-02-05T14:23:38.948Z,3.03
2023-02-05T14:26:12.156Z,2.86
2023-02-05T14:28:49.968Z,2.64
2023-02-05T14:31:50.321Z,2.73
2023-02-05T14:34:48.546Z,2.82
2023-02-05T14:37:40.865Z,2.80
2023-02-05T14:40:29.575Z,2.85
2023-02-05T14:43:13.700Z,2.77
2023-02-05T14:45:51.322Z,2.51
2023-02-05T14:48:27.744Z,2.30
2023-02-05T14:51:18.087Z,2.14
2023-02-05T14:53:58.638Z,2.12
2023-02-05T14:56:39.462Z,2.14
2023-02-05T14:59:29.339Z,2.12
2023-02-05T15:02:02.419Z,2.04
2023-02-05T15:04:52.815Z,2.01
2023-02-05T15:07:28.656Z,2.01
2023-02-05T15:10:04.890Z,1.99
2023-02-05T15:13:01.698Z,1.96
2023-02-05T15:15:36.149Z,1.93
2023-02-05T15:18:22.354Z,1.92
2023-02-05T15:20:57.573Z,1.91
2023-02-05T15:23:36.537Z,1.86
2023-02-05T15:26:15.868Z,1.76
2023-02-05T15:28:57.342Z,1.71
2023-02-05T15:31:38.588Z,1.68
2023-02-05T15:34:28.082Z,1.67
2023-02-05T15:37:06.533Z,1.58
2023-02-05T15:39:48.556Z,1.55
2023-02-05T15:42:25.197Z,1.54
2023-02-05T15:44:57.258Z,1.47
2023-02-05T15:47:30.508Z,1.44
2023-02-05T15:50:03.425Z,1.41
2023-02-05T15:52:35.764Z,1.42
2023-02-05T15:55:17.673Z,1.42
2023-02-05T15:57:50.783Z,1.33
2023-02-05T16:00:23.504Z,1.35
2023-02-05T16:02:59.618Z,1.38
2023-02-05T16:05:33.331Z,1.34
2023-02-05T16:08:15.994Z,1.27
2023-02-05T16:10:57.678Z,1.29
2023-02-05T16:13:30.172Z,1.23
2023-02-05T16:16:07.497Z,1.16
2023-02-05T16:18:44.957Z,1.22
2023-02-05T16:21:23.969Z,1.18
2023-02-05T16:23:59.000Z,1.08
2023-02-05T16:26:37.140Z,1.08
2023-02-05T16:29:25.789Z,1.06
2023-02-05T16:32:04.346Z,1.05
2023-02-05T16:34:40.443Z,1.07
2023-02-05T16:37:19.700Z,1.05
2023-02-05T16:39:54.562Z,1.13
2023-02-05T16:42:38.196Z,1.05
2023-02-05T16:45:25.737Z,0.99
2023-02-05T16:48:23.859Z,0.86
2023-02-05T16:50:57.762Z,0.75
2023-02-05T16:53:31.696Z,0.79
2023-02-05T16:56:15.625Z,0.75
2023-02-05T16:58:49.949Z,0.67
2023-02-05T17:01:27.719Z,0.67
2023-02-05T17:03:59.990Z,0.76
2023-02-05T17:06:36.544Z,0.76
2023-02-05T17:09:08.431Z,0.75
2023-02-05T17:11:42.037Z,0.67
2023-02-05T17:14:23.697Z,0.59
2023-02-05T17:17:01.806Z,0.56
2023-02-05T17:19:35.120Z,0.64
2023-02-05T17:22:23.362Z,0.72
2023-02-05T17:24:56.641Z,0.74
2023-02-05T17:27:32.159Z,0.66
2023-02-05T17:30:07.569Z,0.51
2023-02-05T17:32:39.887Z,0.37
2023-02-05T17:35:18.251Z,0.30
2023-02-05T17:37:50.769Z,0.35
2023-02-05T17:40:23.114Z,0.43
2023-02-05T17:42:53.743Z,0.36
2023-02-05T17:45:28.326Z,0.36
2023-02-05T17:48:00.785Z,0.43
2023-02-05T17:50:36.501Z,0.46
2023-02-05T17:53:11.384Z,0.48
2023-02-05T17:55:43.402Z,0.53
2023-02-05T17:58:15.332Z,0.55
2023-02-05T18:00:47.291Z,0.43
2023-02-05T18:03:28.471Z,0.32
2023-02-05T18:06:02.441Z,0.29
2023-02-05T18:08:36.253Z,0.29
2023-02-05T18:11:09.063Z,0.32
2023-02-05T18:13:43.747Z,0.32
2023-02-05T18:16:15.875Z,0.35
2023-02-05T18:18:49.112Z,0.35
2023-02-05T18:21:24.679Z,0.25
2023-02-05T18:23:59.753Z,0.28
2023-02-05T18:26:34.063Z,0.30
2023-02-05T18:29:05.911Z,0.21
2023-02-05T18:31:42.653Z,0.19
2023-02-05T18:34:15.021Z,0.13
2023-02-05T18:36:50.057Z,0.25
2023-02-05T18:39:29.631Z,0.28
2023-02-05T18:42:02.214Z,0.35
2023-02-05T18:44:34.214Z,0.40
2023-02-05T18:47:07.198Z,0.37
2023-02-05T18:49:39.169Z,0.34
2023-02-05T18:52:11.879Z,0.36
2023-02-05T18:54:47.903Z,0.18
2023-02-05T18:57:20.790Z,0.07
2023-02-05T18:59:51.408Z,-0.01
2023-02-05T19:02:23.903Z,0.01
2023-02-05T19:04:56.462Z,0.09
2023-02-05T19:07:29.577Z,0.03
2023-02-05T19:10:02.512Z,-0.15
2023-02-05T19:12:35.971Z,-0.20
2023-02-05T19:15:11.450Z,-0.13
2023-02-05T19:17:45.632Z,-0.19
2023-02-05T19:20:20.171Z,-0.29
2023-02-05T19:22:55.147Z,-0.32
2023-02-05T19:25:31.123Z,-0.37
2023-02-05T19:28:03.199Z,-0.40
2023-02-05T19:30:38.052Z,-0.45
2023-02-05T19:33:10.195Z,-0.48
2023-02-05T19:35:42.700Z,-0.38
2023-02-05T19:38:19.786Z,-0.28
2023-02-05T19:40:55.117Z,-0.24
2023-02-05T19:43:29.291Z,-0.32
2023-02-05T19:46:05.256Z,-0.40
2023-02-05T19:48:39.470Z,-0.37
2023-02-05T19:51:13.483Z,-0.42
2023-02-05T19:53:47.508Z,-0.47
2023-02-05T19:56:21.257Z,-0.42
2023-02-05T19:58:55.411Z,-0.31
2023-02-05T20:01:29.339Z,-0.22
2023-02-05T20:04:11.136Z,-0.27
2023-02-05T20:06:45.039Z,-0.42
2023-02-05T20:09:18.239Z,-0.60
2023-02-05T20:11:54.262Z,-0.66
2023-02-05T20:14:26.659Z,-0.72
2023-02-05T20:16:58.553Z,-0.72
2023-02-05T20:19:33.148Z,-0.76
2023-02-05T20:22:06.038Z,-0.76
2023-02-05T20:24:38.130Z,-0.76
2023-02-05T20:27:10.202Z,-0.78
2023-02-05T20:29:59.834Z,-0.79
2023-02-05T20:32:32.201Z,-0.77
2023-02-05T20:35:02.864Z,-0.66
2023-02-05T20:37:36.886Z,-0.71
2023-02-05T20:40:10.411Z,-0.83
2023-02-05T20:42:42.347Z,-0.31
2023-02-05T20:45:14.280Z,-0.23
2023-02-05T20:47:46.192Z,-0.58
2023-02-05T20:50:21.099Z,-0.73
2023-02-05T20:52:54.392Z,-0.77
2023-02-05T20:55:26.334Z,-0.78
2023-02-05T20:57:58.357Z,-0.66
2023-02-05T21:00:30.407Z,-0.58
2023-02-05T21:03:02.344Z,-0.52
2023-02-05T21:05:35.609Z,-0.51
2023-02-05T21:08:07.919Z,-0.50
2023-02-05T21:10:40.108Z,-0.63
2023-02-05T21:13:11.909Z,-0.74
2023-02-05T21:15:43.779Z,-0.85
2023-02-05T21:18:15.628Z,-1.01
2023-02-05T21:20:47.605Z,-1.02
2023-02-05T21:23:21.377Z,-0.86
2023-02-05T21:25:53.713Z,-0.90
2023-02-05T21:28:25.646Z,-1.12
2023-02-05T21:31:06.306Z,-1.24
2023-02-05T21:33:38.799Z,-1.23
2023-02-05T21:36:13.817Z,-1.17
2023-02-05T21:38:46.140Z,-0.48
2023-02-05T21:41:19.945Z,5.28
2023-02-05T21:43:53.475Z,6.14
2023-02-05T21:46:29.118Z,3.04
2023-02-05T21:49:02.504Z,1.83
2023-02-05T21:51:36.378Z,1.22
2023-02-05T21:54:08.734Z,0.78
2023-02-05T21:56:43.199Z,0.53
2023-02-05T21:59:16.144Z,0.41
2023-02-05T22:01:48.352Z,0.38
2023-02-05T22:04:20.436Z,0.35
2023-02-05T22:06:53.050Z,0.30
2023-02-05T22:09:25.018Z,0.06
2023-02-05T22:12:02.686Z,-0.15
2023-02-05T22:14:35.617Z,-0.44
2023-02-05T22:17:06.105Z,-0.50
2023-02-05T22:19:37.863Z,-0.50
2023-02-05T22:22:09.868Z,-0.53
2023-02-05T22:24:41.785Z,-0.42
2023-02-05T22:27:13.893Z,-0.31
2023-02-05T22:29:46.929Z,-0.28
2023-02-05T22:32:18.800Z,-0.35
2023-02-05T22:34:50.765Z,-0.42
2023-02-05T22:37:22.578Z,-0.61
2023-02-05T22:39:54.494Z,-0.61
2023-02-05T22:42:27.029Z,-0.59
2023-02-05T22:44:57.853Z,-0.59
2023-02-05T22:47:29.768Z,-0.65
2023-02-05T22:50:02.126Z,-0.81
2023-02-05T22:52:34.079Z,-0.87
2023-02-05T22:55:06.273Z,-0.83
2023-02-05T22:57:38.094Z,-0.83
2023-02-05T23:00:11.855Z,-0.84
2023-02-05T23:02:43.738Z,-0.82
2023-02-05T23:05:15.656Z,-0.83
2023-02-05T23:07:51.339Z,-0.86
2023-02-05T23:10:24.191Z,-0.92
2023-02-05T23:12:56.194Z,-0.91
2023-02-05T23:15:28.414Z,-0.97
2023-02-05T23:18:00.322Z,-0.84
2023-02-05T23:20:32.362Z,-0.70
2023-02-05T23:23:04.628Z,-0.61
2023-02-05T23:25:38.463Z,-0.72
2023-02-05T23:28:10.590Z,-0.69
2023-02-05T23:30:42.783Z,-0.79
2023-02-05T23:33:14.872Z,-0.91
2023-02-05T23:35:46.773Z,-0.98
2023-02-05T23:38:18.615Z,-0.89
2023-02-05T23:40:51.126Z,-0.76
2023-02-05T23:43:21.498Z,-0.69
2023-02-05T23:45:55.793Z,-0.60
2023-02-05T23:48:27.784Z,-0.79
2023-02-05T23:50:59.869Z,-0.75
2023-02-05T23:53:31.709Z,-0.71
2023-02-05T23:56:03.486Z,-0.75
2023-02-05T23:58:35.410Z,-0.80
